JST912 YSSY-YBTL
Flight info
| Callsign | JST912 |
|---|---|
| Flight time | N/A |
| Altitude | 34000 |
| Route | TESAT H530 LASUD Q293 AKUMI Q147 VOMPA Q165 TL |
| Aircraft | A320/M-SDE3FGHIRWY/LB1 |
Departure
| Time | 2026-05-05 04:36 |
|---|---|
| Airport | Sydney Kingsford Smith International Airport (YSSY) |
Arrival
| Time | N/A |
|---|---|
| Airport | Townsville Airport / RAAF Base Townsville (YBTL) |
| Time | Latitude | Longitude | Altitude | Speed | Heading |
|---|---|---|---|---|---|
| 2026-05-05 04:12 | -33.93593 | 151.17701 | 30 ft | 0 kts | 77° |
| 2026-05-05 04:27 | -33.93595 | 151.17690 | 30 ft | 4 kts | 75° |
| 2026-05-05 04:27 | -33.93603 | 151.17660 | 30 ft | 4 kts | 65° |
| 2026-05-05 04:28 | -33.93617 | 151.17634 | 30 ft | 3 kts | 32° |
| 2026-05-05 04:28 | -33.93634 | 151.17629 | 30 ft | 1 kts | 339° |
| 2026-05-05 04:28 | -33.93637 | 151.17630 | 30 ft | 0 kts | 339° |
| 2026-05-05 04:30 | -33.93622 | 151.17623 | 30 ft | 8 kts | 340° |
| 2026-05-05 04:30 | -33.93555 | 151.17604 | 30 ft | 11 kts | 349° |
| 2026-05-05 04:31 | -33.93471 | 151.17584 | 30 ft | 14 kts | 355° |
| 2026-05-05 04:31 | -33.93373 | 151.17589 | 30 ft | 15 kts | 347° |
| 2026-05-05 04:31 | -33.93268 | 151.17564 | 30 ft | 16 kts | 347° |
| 2026-05-05 04:31 | -33.93152 | 151.17533 | 30 ft | 18 kts | 347° |
| 2026-05-05 04:32 | -33.93053 | 151.17534 | 30 ft | 12 kts | 24° |
| 2026-05-05 04:32 | -33.92990 | 151.17503 | 30 ft | 11 kts | 288° |
| 2026-05-05 04:32 | -33.92977 | 151.17422 | 30 ft | 6 kts | 281° |
| 2026-05-05 04:32 | -33.92968 | 151.17367 | 30 ft | 8 kts | 281° |
| 2026-05-05 04:33 | -33.92959 | 151.17314 | 30 ft | 1 kts | 281° |
| 2026-05-05 04:33 | -33.92959 | 151.17312 | 30 ft | 1 kts | 281° |
| 2026-05-05 04:33 | -33.92959 | 151.17311 | 30 ft | 1 kts | 281° |
| 2026-05-05 04:33 | -33.92952 | 151.17263 | 31 ft | 9 kts | 278° |
| 2026-05-05 04:34 | -33.92968 | 151.17186 | 30 ft | 11 kts | 234° |
| 2026-05-05 04:34 | -33.93005 | 151.17176 | 30 ft | 4 kts | 166° |
| 2026-05-05 04:34 | -33.93007 | 151.17177 | 30 ft | 0 kts | 167° |
| 2026-05-05 04:35 | -33.93042 | 151.17186 | 30 ft | 25 kts | 167° |
| 2026-05-05 04:36 | -33.93443 | 151.17288 | 27 ft | 91 kts | 168° |
| 2026-05-05 04:36 | -33.94235 | 151.17493 | 30 ft | 139 kts | 168° |
| 2026-05-05 04:36 | -33.95307 | 151.17767 | 165 ft | 166 kts | 171° |
| 2026-05-05 04:36 | -33.96459 | 151.17979 | 679 ft | 172 kts | 181° |
| 2026-05-05 04:37 | -33.97705 | 151.17935 | 1074 ft | 188 kts | 184° |
| 2026-05-05 04:37 | -33.99084 | 151.17822 | 1401 ft | 209 kts | 188° |
| 2026-05-05 04:37 | -34.00604 | 151.17697 | 1825 ft | 226 kts | 186° |
| 2026-05-05 04:37 | -34.02221 | 151.17582 | 2350 ft | 243 kts | 183° |
| 2026-05-05 04:38 | -34.03940 | 151.17933 | 3020 ft | 256 kts | 167° |
| 2026-05-05 04:38 | -34.05668 | 151.18502 | 3884 ft | 257 kts | 168° |
| 2026-05-05 04:38 | -34.07397 | 151.19077 | 4777 ft | 259 kts | 168° |
| 2026-05-05 04:38 | -34.09143 | 151.19656 | 5595 ft | 262 kts | 168° |